sensor_id;sensor_type;location;lat;lon;timestamp;pressure;altitude;pressure_sealevel;temperature;humidity
17309;BME280;8772;42.804;23.426;2023-01-01T00:02:00;75791.94;;;-140.58;100.00
17309;BME280;8772;42.804;23.426;2023-01-01T00:04:27;75793.97;;;-140.58;100.00
17309;BME280;8772;42.804;23.426;2023-01-01T00:06:54;75812.44;;;-140.58;100.00
17309;BME280;8772;42.804;23.426;2023-01-01T00:09:21;75835.03;;;-140.58;100.00
17309;BME280;8772;42.804;23.426;2023-01-01T00:12:06;75841.19;;;-140.58;100.00
17309;BME280;8772;42.804;23.426;2023-01-01T00:14:34;75837.09;;;-140.58;100.00
17309;BME280;8772;42.804;23.426;2023-01-01T00:17:01;75837.09;;;-140.58;100.00
17309;BME280;8772;42.804;23.426;2023-01-01T00:19:28;75851.44;;;-140.58;100.00
17309;BME280;8772;42.804;23.426;2023-01-01T00:21:54;75847.34;;;-140.58;100.00
17309;BME280;8772;42.804;23.426;2023-01-01T00:24:21;75845.28;;;-140.58;100.00
17309;BME280;8772;42.804;23.426;2023-01-01T00:26:48;75830.94;;;-140.58;100.00
17309;BME280;8772;42.804;23.426;2023-01-01T00:29:15;75837.09;;;-140.58;100.00
17309;BME280;8772;42.804;23.426;2023-01-01T00:31:43;75837.09;;;-140.58;100.00
17309;BME280;8772;42.804;23.426;2023-01-01T00:34:11;75826.81;;;-140.58;100.00
17309;BME280;8772;42.804;23.426;2023-01-01T00:36:38;75837.09;;;-140.58;100.00
17309;BME280;8772;42.804;23.426;2023-01-01T00:39:05;75853.50;;;-140.58;100.00
17309;BME280;8772;42.804;23.426;2023-01-01T00:41:31;75843.25;;;-140.58;100.00
17309;BME280;8772;42.804;23.426;2023-01-01T00:43:58;75853.50;;;-140.58;100.00
17309;BME280;8772;42.804;23.426;2023-01-01T00:46:25;75843.25;;;-140.58;100.00
17309;BME280;8772;42.804;23.426;2023-01-01T00:48:54;75847.34;;;-140.58;100.00
17309;BME280;8772;42.804;23.426;2023-01-01T00:51:21;75849.41;;;-140.58;100.00
17309;BME280;8772;42.804;23.426;2023-01-01T00:53:47;75843.25;;;-140.58;100.00
17309;BME280;8772;42.804;23.426;2023-01-01T00:56:14;75828.88;;;-140.58;100.00
17309;BME280;8772;42.804;23.426;2023-01-01T00:58:41;75816.56;;;-140.58;100.00
17309;BME280;8772;42.804;23.426;2023-01-01T01:01:09;75816.56;;;-140.58;100.00
17309;BME280;8772;42.804;23.426;2023-01-01T01:06:59;75820.66;;;-140.58;100.00
17309;BME280;8772;42.804;23.426;2023-01-01T01:09:26;75830.94;;;-140.58;100.00
17309;BME280;8772;42.804;23.426;2023-01-01T01:11:53;75812.44;;;-140.58;100.00
17309;BME280;8772;42.804;23.426;2023-01-01T01:14:19;75810.41;;;-140.58;100.00
17309;BME280;8772;42.804;23.426;2023-01-01T01:16:46;75814.50;;;-140.58;100.00
17309;BME280;8772;42.804;23.426;2023-01-01T01:19:13;75804.25;;;-140.58;100.00
17309;BME280;8772;42.804;23.426;2023-01-01T01:21:43;75814.50;;;-140.58;100.00
17309;BME280;8772;42.804;23.426;2023-01-01T01:24:13;75808.34;;;-140.58;100.00
17309;BME280;8772;42.804;23.426;2023-01-01T01:26:39;75810.41;;;-140.58;100.00
17309;BME280;8772;42.804;23.426;2023-01-01T01:29:06;75808.34;;;-140.58;100.00
17309;BME280;8772;42.804;23.426;2023-01-01T01:31:34;75820.66;;;-140.58;100.00
17309;BME280;8772;42.804;23.426;2023-01-01T01:34:00;75814.50;;;-140.58;100.00
17309;BME280;8772;42.804;23.426;2023-01-01T01:36:27;75816.56;;;-140.58;100.00
17309;BME280;8772;42.804;23.426;2023-01-01T01:38:55;75816.56;;;-140.58;100.00
17309;BME280;8772;42.804;23.426;2023-01-01T01:41:24;75798.09;;;-140.58;100.00
17309;BME280;8772;42.804;23.426;2023-01-01T01:43:55;75798.09;;;-140.58;100.00
17309;BME280;8772;42.804;23.426;2023-01-01T01:46:27;75800.13;;;-140.58;100.00
17309;BME280;8772;42.804;23.426;2023-01-01T01:48:58;75800.13;;;-140.58;100.00
17309;BME280;8772;42.804;23.426;2023-01-01T01:51:29;75796.03;;;-140.58;100.00
17309;BME280;8772;42.804;23.426;2023-01-01T01:54:00;75796.03;;;-140.58;100.00
17309;BME280;8772;42.804;23.426;2023-01-01T01:56:36;75791.94;;;-140.58;100.00
17309;BME280;8772;42.804;23.426;2023-01-01T01:59:05;75808.34;;;-140.58;100.00
17309;BME280;8772;42.804;23.426;2023-01-01T02:01:32;75808.34;;;-140.58;100.00
17309;BME280;8772;42.804;23.426;2023-01-01T02:04:00;75808.34;;;-140.58;100.00
17309;BME280;8772;42.804;23.426;2023-01-01T02:06:30;75814.50;;;-140.58;100.00
17309;BME280;8772;42.804;23.426;2023-01-01T02:09:00;75824.78;;;-140.58;100.00
17309;BME280;8772;42.804;23.426;2023-01-01T02:11:29;75828.88;;;-140.58;100.00
17309;BME280;8772;42.804;23.426;2023-01-01T02:13:57;75835.03;;;-140.58;100.00
17309;BME280;8772;42.804;23.426;2023-01-01T02:16:30;75845.28;;;-140.58;100.00
17309;BME280;8772;42.804;23.426;2023-01-01T02:19:06;75859.66;;;-140.58;100.00
17309;BME280;8772;42.804;23.426;2023-01-01T02:21:40;75849.41;;;-140.58;100.00
17309;BME280;8772;42.804;23.426;2023-01-01T02:24:20;75851.44;;;-140.58;100.00
17309;BME280;8772;42.804;23.426;2023-01-01T02:26:58;75855.56;;;-140.58;100.00
17309;BME280;8772;42.804;23.426;2023-01-01T02:29:37;75855.56;;;-140.58;100.00
17309;BME280;8772;42.804;23.426;2023-01-01T02:32:09;75861.72;;;-140.58;100.00
17309;BME280;8772;42.804;23.426;2023-01-01T02:34:39;75861.72;;;-140.58;100.00
17309;BME280;8772;42.804;23.426;2023-01-01T02:37:11;75876.09;;;-140.58;100.00
17309;BME280;8772;42.804;23.426;2023-01-01T02:39:43;75867.88;;;-140.58;100.00
17309;BME280;8772;42.804;23.426;2023-01-01T02:42:11;75871.97;;;-140.58;100.00
17309;BME280;8772;42.804;23.426;2023-01-01T02:44:42;75874.03;;;-140.58;100.00
17309;BME280;8772;42.804;23.426;2023-01-01T02:47:14;75874.03;;;-140.58;100.00
17309;BME280;8772;42.804;23.426;2023-01-01T02:49:49;75878.13;;;-140.58;100.00
17309;BME280;8772;42.804;23.426;2023-01-01T02:52:38;75886.34;;;-140.58;100.00
17309;BME280;8772;42.804;23.426;2023-01-01T02:55:16;75886.34;;;-140.58;100.00
17309;BME280;8772;42.804;23.426;2023-01-01T02:57:53;75890.44;;;-140.58;100.00
17309;BME280;8772;42.804;23.426;2023-01-01T03:00:45;75886.34;;;-140.58;100.00
17309;BME280;8772;42.804;23.426;2023-01-01T03:03:17;75886.34;;;-140.58;100.00
17309;BME280;8772;42.804;23.426;2023-01-01T03:05:53;75898.66;;;-140.58;100.00
17309;BME280;8772;42.804;23.426;2023-01-01T03:08:47;75908.94;;;-140.58;100.00
17309;BME280;8772;42.804;23.426;2023-01-01T03:11:17;75906.88;;;-140.58;100.00
17309;BME280;8772;42.804;23.426;2023-01-01T03:13:50;75923.28;;;-140.58;100.00
17309;BME280;8772;42.804;23.426;2023-01-01T03:16:23;75923.28;;;-140.58;100.00
17309;BME280;8772;42.804;23.426;2023-01-01T03:18:59;75913.03;;;-140.58;100.00
17309;BME280;8772;42.804;23.426;2023-01-01T03:21:42;75906.88;;;-140.58;100.00
17309;BME280;8772;42.804;23.426;2023-01-01T03:24:14;75915.09;;;-140.58;100.00
17309;BME280;8772;42.804;23.426;2023-01-01T03:26:44;75904.81;;;-140.58;100.00
17309;BME280;8772;42.804;23.426;2023-01-01T03:29:13;75908.94;;;-140.58;100.00
17309;BME280;8772;42.804;23.426;2023-01-01T03:31:43;75913.03;;;-140.58;100.00
17309;BME280;8772;42.804;23.426;2023-01-01T03:34:15;75913.03;;;-140.58;100.00
17309;BME280;8772;42.804;23.426;2023-01-01T03:36:47;75910.97;;;-140.58;100.00
17309;BME280;8772;42.804;23.426;2023-01-01T03:39:20;75906.88;;;-140.58;100.00
17309;BME280;8772;42.804;23.426;2023-01-01T03:41:53;75910.97;;;-140.58;100.00
17309;BME280;8772;42.804;23.426;2023-01-01T03:44:27;75902.78;;;-140.58;100.00
17309;BME280;8772;42.804;23.426;2023-01-01T03:46:57;75921.25;;;-140.58;100.00
17309;BME280;8772;42.804;23.426;2023-01-01T03:49:24;75927.41;;;-140.58;100.00
17309;BME280;8772;42.804;23.426;2023-01-01T03:52:15;75935.63;;;-140.58;100.00
17309;BME280;8772;42.804;23.426;2023-01-01T03:54:51;75935.63;;;-140.58;100.00
17309;BME280;8772;42.804;23.426;2023-01-01T03:57:23;75960.25;;;-140.58;100.00
17309;BME280;8772;42.804;23.426;2023-01-01T03:59:58;75952.03;;;-140.58;100.00
17309;BME280;8772;42.804;23.426;2023-01-01T04:02:33;75947.94;;;-140.58;100.00
17309;BME280;8772;42.804;23.426;2023-01-01T04:05:03;75933.56;;;-140.58;100.00
17309;BME280;8772;42.804;23.426;2023-01-01T04:07:32;75927.41;;;-140.58;100.00
17309;BME280;8772;42.804;23.426;2023-01-01T04:10:03;75931.50;;;-140.58;100.00
17309;BME280;8772;42.804;23.426;2023-01-01T04:12:43;75935.63;;;-140.58;100.00
17309;BME280;8772;42.804;23.426;2023-01-01T04:15:11;75937.66;;;-140.58;100.00
17309;BME280;8772;42.804;23.426;2023-01-01T04:17:39;75925.34;;;-140.58;100.00
17309;BME280;8772;42.804;23.426;2023-01-01T04:20:07;75929.44;;;-140.58;100.00
17309;BME280;8772;42.804;23.426;2023-01-01T04:22:34;75933.56;;;-140.58;100.00
17309;BME280;8772;42.804;23.426;2023-01-01T04:25:01;75947.94;;;-140.58;100.00
17309;BME280;8772;42.804;23.426;2023-01-01T04:27:28;75947.94;;;-140.58;100.00
17309;BME280;8772;42.804;23.426;2023-01-01T04:29:55;75937.66;;;-140.58;100.00
17309;BME280;8772;42.804;23.426;2023-01-01T04:32:22;75939.72;;;-140.58;100.00
17309;BME280;8772;42.804;23.426;2023-01-01T04:34:51;75927.41;;;-140.58;100.00
17309;BME280;8772;42.804;23.426;2023-01-01T04:37:18;75939.72;;;-140.58;100.00
17309;BME280;8772;42.804;23.426;2023-01-01T04:39:44;75937.66;;;-140.58;100.00
17309;BME280;8772;42.804;23.426;2023-01-01T04:42:11;75939.72;;;-140.58;100.00
17309;BME280;8772;42.804;23.426;2023-01-01T04:44:38;75933.56;;;-140.58;100.00
17309;BME280;8772;42.804;23.426;2023-01-01T04:47:05;75935.63;;;-140.58;100.00
17309;BME280;8772;42.804;23.426;2023-01-01T04:49:32;75939.72;;;-140.58;100.00
17309;BME280;8772;42.804;23.426;2023-01-01T04:52:00;75931.50;;;-140.58;100.00
17309;BME280;8772;42.804;23.426;2023-01-01T04:54:27;75943.81;;;-140.58;100.00
17309;BME280;8772;42.804;23.426;2023-01-01T04:56:54;75945.88;;;-140.58;100.00
17309;BME280;8772;42.804;23.426;2023-01-01T04:59:21;75939.72;;;-140.58;100.00
17309;BME280;8772;42.804;23.426;2023-01-01T05:01:48;75943.81;;;-140.58;100.00
17309;BME280;8772;42.804;23.426;2023-01-01T05:04:16;75952.03;;;-140.58;100.00
17309;BME280;8772;42.804;23.426;2023-01-01T05:06:43;75956.13;;;-140.58;100.00
17309;BME280;8772;42.804;23.426;2023-01-01T05:09:11;75976.66;;;-140.58;100.00
17309;BME280;8772;42.804;23.426;2023-01-01T05:11:39;75970.50;;;-140.58;100.00
17309;BME280;8772;42.804;23.426;2023-01-01T05:14:06;75972.56;;;-140.58;100.00
17309;BME280;8772;42.804;23.426;2023-01-01T05:16:35;75966.41;;;-140.58;100.00
17309;BME280;8772;42.804;23.426;2023-01-01T05:19:03;75976.66;;;-140.58;100.00
17309;BME280;8772;42.804;23.426;2023-01-01T05:21:32;75978.72;;;-140.58;100.00
17309;BME280;8772;42.804;23.426;2023-01-01T05:24:01;75984.88;;;-140.58;100.00
17309;BME280;8772;42.804;23.426;2023-01-01T05:26:32;75984.88;;;-140.58;100.00
17309;BME280;8772;42.804;23.426;2023-01-01T05:28:59;76001.31;;;-140.58;100.00
17309;BME280;8772;42.804;23.426;2023-01-01T05:31:28;76001.31;;;-140.58;100.00
17309;BME280;8772;42.804;23.426;2023-01-01T05:33:55;75997.19;;;-140.58;100.00
17309;BME280;8772;42.804;23.426;2023-01-01T05:36:24;76007.47;;;-140.58;100.00
17309;BME280;8772;42.804;23.426;2023-01-01T05:38:51;75997.19;;;-140.58;100.00
17309;BME280;8772;42.804;23.426;2023-01-01T05:41:20;76003.34;;;-140.58;100.00
17309;BME280;8772;42.804;23.426;2023-01-01T05:43:49;75999.25;;;-140.58;100.00
17309;BME280;8772;42.804;23.426;2023-01-01T05:46:19;75995.13;;;-140.58;100.00
17309;BME280;8772;42.804;23.426;2023-01-01T05:48:47;75997.19;;;-140.58;100.00
17309;BME280;8772;42.804;23.426;2023-01-01T05:51:16;75999.25;;;-140.58;100.00
17309;BME280;8772;42.804;23.426;2023-01-01T05:53:43;76001.31;;;-140.58;100.00
17309;BME280;8772;42.804;23.426;2023-01-01T05:56:10;76007.47;;;-140.58;100.00
17309;BME280;8772;42.804;23.426;2023-01-01T05:58:38;76003.34;;;-140.58;100.00
17309;BME280;8772;42.804;23.426;2023-01-01T06:01:08;76001.31;;;-140.58;100.00
17309;BME280;8772;42.804;23.426;2023-01-01T06:03:37;76009.50;;;-140.58;100.00
17309;BME280;8772;42.804;23.426;2023-01-01T06:06:05;76007.47;;;-140.58;100.00
17309;BME280;8772;42.804;23.426;2023-01-01T06:08:32;76005.41;;;-140.58;100.00
17309;BME280;8772;42.804;23.426;2023-01-01T06:11:01;76001.31;;;-140.58;100.00
17309;BME280;8772;42.804;23.426;2023-01-01T06:13:28;76001.31;;;-140.58;100.00
17309;BME280;8772;42.804;23.426;2023-01-01T06:15:57;76003.34;;;-140.58;100.00
17309;BME280;8772;42.804;23.426;2023-01-01T06:18:28;76007.47;;;-140.58;100.00
17309;BME280;8772;42.804;23.426;2023-01-01T06:21:03;76009.50;;;-140.58;100.00
17309;BME280;8772;42.804;23.426;2023-01-01T06:23:31;76007.47;;;-140.58;100.00
17309;BME280;8772;42.804;23.426;2023-01-01T06:26:03;76009.50;;;-140.58;100.00
17309;BME280;8772;42.804;23.426;2023-01-01T06:28:30;76001.31;;;-140.58;100.00
17309;BME280;8772;42.804;23.426;2023-01-01T06:30:58;75995.13;;;-140.58;100.00
17309;BME280;8772;42.804;23.426;2023-01-01T06:33:27;75993.09;;;-140.58;100.00
17309;BME280;8772;42.804;23.426;2023-01-01T06:35:54;75984.88;;;-140.58;100.00
17309;BME280;8772;42.804;23.426;2023-01-01T06:38:21;75984.88;;;-140.58;100.00
17309;BME280;8772;42.804;23.426;2023-01-01T06:40:55;75980.78;;;-140.58;100.00
17309;BME280;8772;42.804;23.426;2023-01-01T06:43:22;75980.78;;;-140.58;100.00
17309;BME280;8772;42.804;23.426;2023-01-01T06:45:58;75972.56;;;-140.58;100.00
17309;BME280;8772;42.804;23.426;2023-01-01T06:48:28;75964.34;;;-140.58;100.00
17309;BME280;8772;42.804;23.426;2023-01-01T06:50:56;75956.13;;;-140.58;100.00
17309;BME280;8772;42.804;23.426;2023-01-01T06:53:23;75947.94;;;-140.58;100.00
17309;BME280;8772;42.804;23.426;2023-01-01T06:55:50;75954.09;;;-140.58;100.00
17309;BME280;8772;42.804;23.426;2023-01-01T06:58:17;75952.03;;;-140.58;100.00
17309;BME280;8772;42.804;23.426;2023-01-01T07:00:44;75943.81;;;-140.58;100.00
17309;BME280;8772;42.804;23.426;2023-01-01T07:03:11;75931.50;;;-140.58;100.00
17309;BME280;8772;42.804;23.426;2023-01-01T07:05:40;75927.41;;;-140.58;100.00
17309;BME280;8772;42.804;23.426;2023-01-01T07:08:07;75923.28;;;-140.58;100.00
17309;BME280;8772;42.804;23.426;2023-01-01T07:10:34;75919.19;;;-140.58;100.00
17309;BME280;8772;42.804;23.426;2023-01-01T07:13:01;75904.81;;;-140.58;100.00
17309;BME280;8772;42.804;23.426;2023-01-01T07:15:28;75900.72;;;-140.58;100.00
17309;BME280;8772;42.804;23.426;2023-01-01T07:17:56;75894.56;;;-140.58;100.00
17309;BME280;8772;42.804;23.426;2023-01-01T07:20:22;75886.34;;;-140.58;100.00
17309;BME280;8772;42.804;23.426;2023-01-01T07:22:51;75880.19;;;-140.58;100.00
17309;BME280;8772;42.804;23.426;2023-01-01T07:25:18;75878.13;;;-140.58;100.00
17309;BME280;8772;42.804;23.426;2023-01-01T07:27:44;75874.03;;;-140.58;100.00
17309;BME280;8772;42.804;23.426;2023-01-01T07:30:11;75865.81;;;-140.58;100.00
17309;BME280;8772;42.804;23.426;2023-01-01T07:32:38;75861.72;;;-140.58;100.00
17309;BME280;8772;42.804;23.426;2023-01-01T07:35:06;75851.44;;;-140.58;100.00
17309;BME280;8772;42.804;23.426;2023-01-01T07:37:33;75851.44;;;-140.58;100.00
17309;BME280;8772;42.804;23.426;2023-01-01T07:40:02;75841.19;;;-140.58;100.00
17309;BME280;8772;42.804;23.426;2023-01-01T07:42:29;75835.03;;;-140.58;100.00
17309;BME280;8772;42.804;23.426;2023-01-01T07:44:56;75832.97;;;-140.58;100.00
17309;BME280;8772;42.804;23.426;2023-01-01T07:47:23;75822.72;;;-140.58;100.00
17309;BME280;8772;42.804;23.426;2023-01-01T07:49:51;75814.50;;;-140.58;100.00
17309;BME280;8772;42.804;23.426;2023-01-01T07:52:19;75812.44;;;-140.58;100.00
17309;BME280;8772;42.804;23.426;2023-01-01T07:54:46;75804.25;;;-140.58;100.00
17309;BME280;8772;42.804;23.426;2023-01-01T07:57:14;75796.03;;;-140.58;100.00
17309;BME280;8772;42.804;23.426;2023-01-01T07:59:41;75789.88;;;-140.58;100.00
17309;BME280;8772;42.804;23.426;2023-01-01T08:02:09;75779.63;;;-140.58;100.00
17309;BME280;8772;42.804;23.426;2023-01-01T08:04:37;75783.72;;;-140.58;100.00
17309;BME280;8772;42.804;23.426;2023-01-01T08:07:04;75771.41;;;-140.58;100.00
17309;BME280;8772;42.804;23.426;2023-01-01T08:09:31;75765.25;;;-140.58;100.00
17309;BME280;8772;42.804;23.426;2023-01-01T08:11:58;75771.41;;;-140.58;100.00
17309;BME280;8772;42.804;23.426;2023-01-01T08:14:26;75767.28;;;-140.58;100.00
17309;BME280;8772;42.804;23.426;2023-01-01T08:16:53;75750.88;;;-140.58;100.00
17309;BME280;8772;42.804;23.426;2023-01-01T08:19:20;75738.56;;;-140.58;100.00
17309;BME280;8772;42.804;23.426;2023-01-01T08:21:46;75730.34;;;-140.58;100.00
17309;BME280;8772;42.804;23.426;2023-01-01T08:24:13;75713.94;;;-140.58;100.00
17309;BME280;8772;42.804;23.426;2023-01-01T08:26:40;75695.44;;;-140.58;100.00
17309;BME280;8772;42.804;23.426;2023-01-01T08:29:08;75689.28;;;-140.58;100.00
17309;BME280;8772;42.804;23.426;2023-01-01T08:31:38;75681.09;;;-140.58;100.00
17309;BME280;8772;42.804;23.426;2023-01-01T08:34:05;75679.03;;;-140.58;100.00
17309;BME280;8772;42.804;23.426;2023-01-01T08:36:32;75664.66;;;-140.58;100.00
17309;BME280;8772;42.804;23.426;2023-01-01T08:38:59;75656.47;;;-140.58;100.00
17309;BME280;8772;42.804;23.426;2023-01-01T08:41:26;75642.09;;;-140.58;100.00
17309;BME280;8772;42.804;23.426;2023-01-01T08:43:53;75625.66;;;-140.58;100.00
17309;BME280;8772;42.804;23.426;2023-01-01T08:46:20;75623.63;;;-140.58;100.00
17309;BME280;8772;42.804;23.426;2023-01-01T08:48:48;75615.41;;;-140.58;100.00
17309;BME280;8772;42.804;23.426;2023-01-01T08:51:16;75607.19;;;-140.58;100.00
17309;BME280;8772;42.804;23.426;2023-01-01T08:53:43;75598.97;;;-140.58;100.00
17309;BME280;8772;42.804;23.426;2023-01-01T08:56:11;75590.78;;;-140.58;100.00
17309;BME280;8772;42.804;23.426;2023-01-01T08:58:40;75580.50;;;-140.58;100.00
17309;BME280;8772;42.804;23.426;2023-01-01T09:01:08;75578.47;;;-140.58;100.00
17309;BME280;8772;42.804;23.426;2023-01-01T09:03:35;75576.41;;;-140.58;100.00
17309;BME280;8772;42.804;23.426;2023-01-01T09:06:04;75566.16;;;-140.58;100.00
17309;BME280;8772;42.804;23.426;2023-01-01T09:08:31;75562.03;;;-140.58;100.00
17309;BME280;8772;42.804;23.426;2023-01-01T09:10:59;75555.88;;;-140.58;100.00
17309;BME280;8772;42.804;23.426;2023-01-01T09:13:26;75557.94;;;-140.58;100.00
17309;BME280;8772;42.804;23.426;2023-01-01T09:15:54;75541.50;;;-140.58;100.00
17309;BME280;8772;42.804;23.426;2023-01-01T09:18:21;75541.50;;;-140.58;100.00
17309;BME280;8772;42.804;23.426;2023-01-01T09:20:48;75547.66;;;-140.58;100.00
17309;BME280;8772;42.804;23.426;2023-01-01T09:23:16;75531.25;;;-140.58;100.00
17309;BME280;8772;42.804;23.426;2023-01-01T09:25:43;75518.94;;;-140.58;100.00
17309;BME280;8772;42.804;23.426;2023-01-01T09:28:11;75545.63;;;-140.58;100.00
17309;BME280;8772;42.804;23.426;2023-01-01T09:30:38;75518.94;;;-140.58;100.00
17309;BME280;8772;42.804;23.426;2023-01-01T09:33:05;75518.94;;;-140.58;100.00
17309;BME280;8772;42.804;23.426;2023-01-01T09:35:32;75508.69;;;-140.58;100.00
17309;BME280;8772;42.804;23.426;2023-01-01T09:37:59;75512.78;;;-140.58;100.00
17309;BME280;8772;42.804;23.426;2023-01-01T09:40:33;75502.53;;;-140.58;100.00
17309;BME280;8772;42.804;23.426;2023-01-01T09:43:08;75484.03;;;-140.58;100.00
17309;BME280;8772;42.804;23.426;2023-01-01T09:45:48;75496.34;;;-140.58;100.00
17309;BME280;8772;42.804;23.426;2023-01-01T09:48:20;75477.88;;;-140.58;100.00
17309;BME280;8772;42.804;23.426;2023-01-01T09:50:47;75463.53;;;-140.58;100.00
17309;BME280;8772;42.804;23.426;2023-01-01T09:53:17;75463.53;;;-140.58;100.00
17309;BME280;8772;42.804;23.426;2023-01-01T09:55:52;75457.38;;;-140.58;100.00
17309;BME280;8772;42.804;23.426;2023-01-01T09:58:21;75430.69;;;-140.58;100.00
17309;BME280;8772;42.804;23.426;2023-01-01T10:00:51;75432.72;;;-140.58;100.00
17309;BME280;8772;42.804;23.426;2023-01-01T10:03:27;75418.38;;;-140.58;100.00
17309;BME280;8772;42.804;23.426;2023-01-01T10:06:02;75401.94;;;-140.58;100.00
17309;BME280;8772;42.804;23.426;2023-01-01T10:08:47;75393.75;;;-140.58;100.00
17309;BME280;8772;42.804;23.426;2023-01-01T10:11:25;75381.44;;;-140.58;100.00
17309;BME280;8772;42.804;23.426;2023-01-01T10:13:58;75377.31;;;-140.58;100.00
17309;BME280;8772;42.804;23.426;2023-01-01T10:16:30;75369.09;;;-140.58;100.00
17309;BME280;8772;42.804;23.426;2023-01-01T10:19:01;75362.94;;;-140.58;100.00
17309;BME280;8772;42.804;23.426;2023-01-01T10:21:36;75369.09;;;-140.58;100.00
17309;BME280;8772;42.804;23.426;2023-01-01T10:24:26;75362.94;;;-140.58;100.00
17309;BME280;8772;42.804;23.426;2023-01-01T10:27:01;75354.75;;;-140.58;100.00
17309;BME280;8772;42.804;23.426;2023-01-01T10:29:36;75350.63;;;-140.58;100.00
17309;BME280;8772;42.804;23.426;2023-01-01T10:32:15;75330.13;;;-140.58;100.00
17309;BME280;8772;42.804;23.426;2023-01-01T10:34:43;75315.75;;;-140.58;100.00
17309;BME280;8772;42.804;23.426;2023-01-01T10:37:11;75307.53;;;-140.58;100.00
17309;BME280;8772;42.804;23.426;2023-01-01T10:39:42;75295.22;;;-140.58;100.00
17309;BME280;8772;42.804;23.426;2023-01-01T10:42:13;75282.91;;;-140.58;100.00
17309;BME280;8772;42.804;23.426;2023-01-01T10:44:41;75268.53;;;-140.58;100.00
17309;BME280;8772;42.804;23.426;2023-01-01T10:47:23;75260.34;;;-140.58;100.00
17309;BME280;8772;42.804;23.426;2023-01-01T10:49:55;75258.28;;;-140.58;100.00
17309;BME280;8772;42.804;23.426;2023-01-01T10:52:28;75250.06;;;-140.58;100.00
17309;BME280;8772;42.804;23.426;2023-01-01T10:54:58;75225.44;;;-140.58;100.00
17309;BME280;8772;42.804;23.426;2023-01-01T10:57:44;75206.97;;;-140.58;100.00
17309;BME280;8772;42.804;23.426;2023-01-01T11:00:20;75188.50;;;-140.58;100.00
17309;BME280;8772;42.804;23.426;2023-01-01T11:03:08;75176.19;;;-140.58;100.00
17309;BME280;8772;42.804;23.426;2023-01-01T11:05:36;75163.88;;;-140.58;100.00
17309;BME280;8772;42.804;23.426;2023-01-01T11:08:15;75159.78;;;-140.58;100.00
17309;BME280;8772;42.804;23.426;2023-01-01T11:10:49;75141.31;;;-140.58;100.00
17309;BME280;8772;42.804;23.426;2023-01-01T11:13:19;75122.84;;;-140.58;100.00
17309;BME280;8772;42.804;23.426;2023-01-01T11:15:47;75108.47;;;-140.58;100.00
17309;BME280;8772;42.804;23.426;2023-01-01T11:18:18;75098.22;;;-140.58;100.00
17309;BME280;8772;42.804;23.426;2023-01-01T11:20:50;75085.91;;;-140.58;100.00
17309;BME280;8772;42.804;23.426;2023-01-01T11:23:27;75077.69;;;-140.58;100.00
17309;BME280;8772;42.804;23.426;2023-01-01T11:25:57;75061.28;;;-140.58;100.00
17309;BME280;8772;42.804;23.426;2023-01-01T11:28:27;75048.94;;;-140.58;100.00
17309;BME280;8772;42.804;23.426;2023-01-01T11:31:02;75048.94;;;-140.58;100.00
17309;BME280;8772;42.804;23.426;2023-01-01T11:33:33;75040.75;;;-140.58;100.00
17309;BME280;8772;42.804;23.426;2023-01-01T11:36:02;75016.13;;;-140.58;100.00
17309;BME280;8772;42.804;23.426;2023-01-01T11:38:30;75005.84;;;-140.58;100.00
17309;BME280;8772;42.804;23.426;2023-01-01T11:41:02;74995.59;;;-140.58;100.00
17309;BME280;8772;42.804;23.426;2023-01-01T11:43:36;74983.28;;;-140.58;100.00
17309;BME280;8772;42.804;23.426;2023-01-01T11:46:06;74962.75;;;-140.58;100.00
17309;BME280;8772;42.804;23.426;2023-01-01T11:48:35;74958.66;;;-140.58;100.00
17309;BME280;8772;42.804;23.426;2023-01-01T11:51:08;74940.19;;;-140.58;100.00
17309;BME280;8772;42.804;23.426;2023-01-01T11:53:37;74925.81;;;-140.58;100.00
17309;BME280;8772;42.804;23.426;2023-01-01T11:56:10;74915.56;;;-140.58;100.00
17309;BME280;8772;42.804;23.426;2023-01-01T11:58:44;74905.31;;;-140.58;100.00
17309;BME280;8772;42.804;23.426;2023-01-01T12:01:20;74893.00;;;-140.58;100.00
17309;BME280;8772;42.804;23.426;2023-01-01T12:03:53;74872.47;;;-140.58;100.00
17309;BME280;8772;42.804;23.426;2023-01-01T12:06:25;74856.06;;;-140.58;100.00
17309;BME280;8772;42.804;23.426;2023-01-01T12:09:03;74839.63;;;-140.58;100.00
17309;BME280;8772;42.804;23.426;2023-01-01T12:11:36;74823.22;;;-140.58;100.00
17309;BME280;8772;42.804;23.426;2023-01-01T12:14:27;74796.53;;;-140.58;100.00
17309;BME280;8772;42.804;23.426;2023-01-01T12:17:00;74782.19;;;-140.58;100.00
17309;BME280;8772;42.804;23.426;2023-01-01T12:19:32;74782.19;;;-140.58;100.00
17309;BME280;8772;42.804;23.426;2023-01-01T12:22:02;74753.44;;;-140.58;100.00
17309;BME280;8772;42.804;23.426;2023-01-01T12:24:32;74737.03;;;-140.58;100.00
17309;BME280;8772;42.804;23.426;2023-01-01T12:30:14;74702.16;;;-140.58;100.00
17309;BME280;8772;42.804;23.426;2023-01-01T12:33:06;74683.69;;;-140.58;100.00
17309;BME280;8772;42.804;23.426;2023-01-01T12:35:49;74671.38;;;-140.58;100.00
17309;BME280;8772;42.804;23.426;2023-01-01T12:38:28;74663.16;;;-140.58;100.00
17309;BME280;8772;42.804;23.426;2023-01-01T12:41:05;74642.66;;;-140.58;100.00
17309;BME280;8772;42.804;23.426;2023-01-01T12:43:39;74626.22;;;-140.58;100.00
17309;BME280;8772;42.804;23.426;2023-01-01T12:52:16;74556.47;;;-140.58;100.00
17309;BME280;8772;42.804;23.426;2023-01-01T12:58:09;74519.53;;;-140.58;100.00
17309;BME280;8772;42.804;23.426;2023-01-01T13:00:41;74513.38;;;-140.58;100.00
17309;BME280;8772;42.804;23.426;2023-01-01T13:03:16;74494.91;;;-140.58;100.00